createdAt,value
2023-04-01T00:00:03.109Z,97.55
2023-04-01T00:02:30.054Z,93.12
2023-04-01T00:04:57.360Z,97.37
2023-04-01T00:07:24.259Z,94.53
2023-04-01T00:09:51.931Z,100.00
2023-04-01T00:12:18.806Z,100.00
2023-04-01T00:14:46.109Z,100.00
2023-04-01T00:17:13.136Z,100.00
2023-04-01T00:19:40.407Z,100.00
2023-04-01T00:22:07.419Z,100.00
2023-04-01T00:24:34.429Z,100.00
2023-04-01T00:27:01.376Z,100.00
2023-04-01T00:29:30.450Z,100.00
2023-04-01T00:31:59.896Z,100.00
2023-04-01T00:34:27.412Z,100.00
2023-04-01T00:36:55.261Z,100.00
2023-04-01T00:39:22.806Z,100.00
2023-04-01T00:41:50.456Z,100.00
2023-04-01T00:44:28.483Z,100.00
2023-04-01T00:46:55.785Z,100.00
2023-04-01T00:49:30.995Z,100.00
2023-04-01T00:52:01.316Z,100.00
2023-04-01T00:54:31.172Z,100.00
2023-04-01T00:57:03.540Z,100.00
2023-04-01T00:59:38.397Z,100.00
2023-04-01T01:02:08.448Z,100.00
2023-04-01T01:04:36.940Z,100.00
2023-04-01T01:07:06.881Z,100.00
2023-04-01T01:09:55.642Z,100.00
2023-04-01T01:12:27.112Z,100.00
2023-04-01T01:14:53.948Z,100.00
2023-04-01T01:17:28.295Z,100.00
2023-04-01T01:20:07.717Z,100.00
2023-04-01T01:23:06.539Z,100.00
2023-04-01T01:25:49.452Z,100.00
2023-04-01T01:28:37.757Z,100.00
2023-04-01T01:31:38.131Z,100.00
2023-04-01T01:34:14.183Z,100.00
2023-04-01T01:36:46.295Z,100.00
2023-04-01T01:39:15.107Z,100.00
2023-04-01T01:41:46.262Z,100.00
2023-04-01T01:44:16.517Z,100.00
2023-04-01T01:46:46.003Z,100.00
2023-04-01T01:49:14.913Z,100.00
2023-04-01T01:51:44.285Z,100.00
2023-04-01T01:54:15.744Z,100.00
2023-04-01T01:56:46.380Z,100.00
2023-04-01T01:59:15.791Z,100.00
2023-04-01T02:01:47.878Z,100.00
2023-04-01T02:04:16.828Z,100.00
2023-04-01T02:06:53.673Z,100.00
2023-04-01T02:09:21.644Z,100.00
2023-04-01T02:12:05.217Z,100.00
2023-04-01T02:14:51.208Z,100.00
2023-04-01T02:17:21.724Z,100.00
2023-04-01T02:19:57.142Z,100.00
2023-04-01T02:22:33.420Z,100.00
2023-04-01T02:25:05.928Z,100.00
2023-04-01T02:27:33.270Z,100.00
2023-04-01T02:30:00.481Z,100.00
2023-04-01T02:32:30.899Z,100.00
2023-04-01T02:34:58.321Z,100.00
2023-04-01T02:37:25.299Z,100.00
2023-04-01T02:39:52.243Z,100.00
2023-04-01T02:42:19.206Z,100.00
2023-04-01T02:44:46.290Z,100.00
2023-04-01T02:47:13.280Z,100.00
2023-04-01T02:49:40.241Z,100.00
2023-04-01T02:52:07.172Z,100.00
2023-04-01T02:54:34.064Z,100.00
2023-04-01T02:57:01.004Z,100.00
2023-04-01T02:59:27.908Z,100.00
2023-04-01T03:01:54.897Z,100.00
2023-04-01T03:04:21.954Z,100.00
2023-04-01T03:06:48.773Z,100.00
2023-04-01T03:09:15.733Z,100.00
2023-04-01T03:11:42.804Z,100.00
2023-04-01T03:14:09.755Z,100.00
2023-04-01T03:16:36.699Z,100.00
2023-04-01T03:19:03.645Z,100.00
2023-04-01T03:21:30.770Z,100.00
2023-04-01T03:23:57.872Z,100.00
2023-04-01T03:26:24.728Z,100.00
2023-04-01T03:28:51.652Z,100.00
2023-04-01T03:31:18.742Z,100.00
2023-04-01T03:33:46.267Z,100.00
2023-04-01T03:36:14.006Z,100.00
2023-04-01T03:38:45.215Z,100.00
2023-04-01T03:41:16.937Z,100.00
2023-04-01T03:43:43.935Z,100.00
2023-04-01T03:46:11.077Z,100.00
2023-04-01T03:48:38.141Z,99.23
2023-04-01T03:51:09.118Z,98.76
2023-04-01T03:53:36.100Z,99.27
2023-04-01T03:56:07.447Z,98.05
2023-04-01T03:58:34.616Z,97.29
2023-04-01T04:01:01.641Z,97.14
2023-04-01T04:03:29.471Z,97.27
2023-04-01T04:05:57.559Z,96.27
2023-04-01T04:08:24.516Z,95.74
2023-04-01T04:10:57.070Z,94.83
2023-04-01T04:13:23.959Z,93.85
2023-04-01T04:15:51.039Z,93.22
2023-04-01T04:18:17.960Z,91.89
2023-04-01T04:20:48.377Z,100.00
2023-04-01T04:23:15.596Z,95.85
2023-04-01T04:25:42.691Z,94.09
2023-04-01T04:28:09.640Z,96.39
2023-04-01T04:30:36.612Z,99.06
2023-04-01T04:33:03.544Z,97.88
2023-04-01T04:35:30.950Z,95.96
2023-04-01T04:37:58.133Z,100.00
2023-04-01T04:40:25.129Z,100.00
2023-04-01T04:42:52.053Z,100.00
2023-04-01T04:45:19.004Z,100.00
2023-04-01T04:47:46.000Z,100.00
2023-04-01T04:50:12.991Z,100.00
2023-04-01T04:52:39.904Z,100.00
2023-04-01T04:55:07.255Z,100.00
2023-04-01T04:57:34.198Z,100.00
2023-04-01T05:00:01.217Z,100.00
2023-04-01T05:02:28.298Z,100.00
2023-04-01T05:04:55.863Z,100.00
2023-04-01T05:07:22.741Z,100.00
2023-04-01T05:09:49.718Z,100.00
2023-04-01T05:12:16.813Z,100.00
2023-04-01T05:14:43.791Z,100.00
2023-04-01T05:17:13.543Z,100.00
2023-04-01T05:19:40.782Z,100.00
2023-04-01T05:22:07.890Z,100.00
2023-04-01T05:24:34.985Z,100.00
2023-04-01T05:27:02.259Z,99.51
2023-04-01T05:29:29.190Z,100.00
2023-04-01T05:31:56.119Z,100.00
2023-04-01T05:34:23.071Z,100.00
2023-04-01T05:36:50.030Z,100.00
2023-04-01T05:39:16.995Z,100.00
2023-04-01T05:41:43.961Z,100.00
2023-04-01T05:44:13.819Z,100.00
2023-04-01T05:46:40.669Z,100.00
2023-04-01T05:49:07.891Z,100.00
2023-04-01T05:51:34.838Z,100.00
2023-04-01T05:54:01.786Z,100.00
2023-04-01T05:56:28.625Z,100.00
2023-04-01T05:58:55.752Z,100.00
2023-04-01T06:01:22.931Z,100.00
2023-04-01T06:03:50.037Z,100.00
2023-04-01T06:06:29.744Z,100.00
2023-04-01T06:08:59.960Z,100.00
2023-04-01T06:12:08.185Z,100.00
2023-04-01T06:14:57.161Z,100.00
2023-04-01T06:17:49.259Z,100.00
2023-04-01T06:20:36.519Z,100.00
2023-04-01T06:23:15.960Z,100.00
2023-04-01T06:26:10.660Z,100.00
2023-04-01T06:28:56.232Z,100.00
2023-04-01T06:32:00.084Z,100.00
2023-04-01T06:34:36.015Z,100.00
2023-04-01T06:37:40.478Z,100.00
2023-04-01T06:40:26.016Z,100.00
2023-04-01T06:43:04.402Z,100.00
2023-04-01T06:45:37.380Z,100.00
2023-04-01T06:48:07.359Z,100.00
2023-04-01T06:50:53.864Z,100.00
2023-04-01T06:53:47.079Z,100.00
2023-04-01T06:56:22.016Z,100.00
2023-04-01T06:59:03.548Z,100.00
2023-04-01T07:01:37.029Z,100.00
2023-04-01T07:04:12.635Z,100.00
2023-04-01T07:07:01.622Z,100.00
2023-04-01T07:09:56.834Z,100.00
2023-04-01T07:12:33.506Z,100.00
2023-04-01T07:15:05.141Z,100.00
2023-04-01T07:17:36.764Z,100.00
2023-04-01T07:20:22.220Z,100.00
2023-04-01T07:22:52.742Z,100.00
2023-04-01T07:25:19.670Z,100.00
2023-04-01T07:27:47.634Z,100.00
2023-04-01T07:30:19.384Z,98.91
2023-04-01T07:33:00.764Z,99.79
2023-04-01T07:35:32.341Z,100.00
2023-04-01T07:38:19.348Z,92.52
2023-04-01T07:40:57.320Z,92.94
2023-04-01T07:43:44.753Z,89.00
2023-04-01T07:46:31.899Z,87.40
2023-04-01T07:49:01.715Z,83.47
2023-04-01T07:51:43.726Z,84.48
2023-04-01T07:54:25.803Z,83.33
2023-04-01T07:56:52.705Z,79.08
2023-04-01T07:59:44.199Z,77.58
2023-04-01T08:02:40.925Z,77.50
2023-04-01T08:05:07.839Z,76.04
2023-04-01T08:07:51.660Z,70.70
2023-04-01T08:10:53.663Z,71.29
2023-04-01T08:13:50.501Z,71.33
2023-04-01T08:16:26.443Z,67.17
2023-04-01T08:19:11.502Z,71.35
2023-04-01T08:21:52.382Z,69.64
2023-04-01T08:24:44.450Z,65.89
2023-04-01T08:27:24.888Z,66.59
2023-04-01T08:30:02.171Z,69.20
2023-04-01T08:32:38.424Z,66.58
2023-04-01T08:35:19.425Z,69.87
2023-04-01T08:37:47.017Z,72.11
2023-04-01T08:40:32.379Z,68.83
2023-04-01T08:42:59.375Z,67.35
2023-04-01T08:45:32.566Z,63.71
2023-04-01T08:48:26.124Z,63.91
2023-04-01T08:50:52.981Z,60.80
2023-04-01T08:53:31.735Z,59.06
2023-04-01T08:56:19.451Z,58.17
2023-04-01T08:59:24.603Z,53.16
2023-04-01T09:02:16.998Z,57.51
2023-04-01T09:05:17.681Z,52.88
2023-04-01T09:07:52.943Z,55.72
2023-04-01T09:10:28.889Z,53.56
2023-04-01T09:13:42.868Z,51.39
2023-04-01T09:16:18.244Z,50.55
2023-04-01T09:19:18.318Z,49.97
2023-04-01T09:22:07.177Z,51.17
2023-04-01T09:25:11.764Z,49.79
2023-04-01T09:27:58.979Z,52.70
2023-04-01T09:30:43.948Z,48.63
2023-04-01T09:33:40.002Z,48.90
2023-04-01T09:36:18.729Z,46.97
2023-04-01T09:39:24.036Z,47.12
2023-04-01T09:42:04.510Z,47.01
2023-04-01T09:44:52.114Z,47.65
2023-04-01T09:47:47.115Z,45.71
2023-04-01T09:50:34.297Z,45.76
2023-04-01T09:53:28.909Z,47.00
2023-04-01T09:56:14.134Z,47.80
2023-04-01T09:58:55.975Z,48.13
2023-04-01T10:01:58.913Z,46.17
2023-04-01T10:04:25.745Z,45.94
2023-04-01T10:07:40.642Z,45.47
2023-04-01T10:10:48.058Z,47.26
2023-04-01T10:13:18.025Z,44.10
2023-04-01T10:16:15.610Z,43.02
2023-04-01T10:19:12.965Z,41.56
2023-04-01T10:22:03.544Z,41.49
2023-04-01T10:25:07.187Z,44.52
2023-04-01T10:28:11.842Z,39.55
2023-04-01T10:31:23.644Z,40.70
2023-04-01T10:34:21.184Z,40.44
2023-04-01T10:36:55.235Z,40.16
2023-04-01T10:39:40.620Z,39.75
2023-04-01T10:42:24.777Z,41.17
2023-04-01T10:45:26.153Z,40.79
2023-04-01T10:48:18.680Z,38.02
2023-04-01T10:51:12.324Z,40.05
2023-04-01T10:53:59.677Z,41.74
2023-04-01T10:56:41.557Z,40.69
2023-04-01T10:59:14.490Z,41.22
2023-04-01T11:02:11.228Z,41.73
2023-04-01T11:05:08.906Z,41.63
2023-04-01T11:08:06.433Z,41.45
2023-04-01T11:11:19.779Z,42.72
2023-04-01T11:14:08.801Z,42.81
2023-04-01T11:16:57.212Z,42.36
2023-04-01T11:19:51.781Z,42.44
2023-04-01T11:22:53.073Z,42.97
2023-04-01T11:25:37.409Z,43.54
2023-04-01T11:28:24.783Z,42.57
2023-04-01T11:31:20.645Z,41.89
2023-04-01T11:33:59.094Z,42.82
2023-04-01T11:36:37.974Z,41.99
2023-04-01T11:39:22.958Z,41.93
2023-04-01T11:42:21.056Z,40.46
2023-04-01T11:45:02.123Z,40.34
2023-04-01T11:48:13.481Z,39.58
2023-04-01T11:51:09.161Z,38.49
2023-04-01T11:53:36.028Z,39.25
2023-04-01T11:56:09.187Z,37.81
2023-04-01T11:58:36.128Z,40.75
2023-04-01T12:01:34.490Z,40.20
2023-04-01T12:04:23.337Z,40.68
2023-04-01T12:06:56.490Z,41.24
2023-04-01T12:09:26.349Z,40.38
2023-04-01T12:12:12.254Z,40.44
2023-04-01T12:15:24.512Z,42.10
2023-04-01T12:17:57.453Z,44.64
2023-04-01T12:20:39.597Z,47.14
2023-04-01T12:23:20.778Z,47.50
2023-04-01T12:25:59.633Z,45.41
2023-04-01T12:29:08.583Z,46.81
2023-04-01T12:31:52.736Z,44.78
2023-04-01T12:34:32.256Z,45.60
2023-04-01T12:37:19.239Z,49.30
2023-04-01T12:39:53.140Z,44.86
2023-04-01T12:42:53.693Z,46.78
2023-04-01T12:45:31.795Z,47.31
2023-04-01T12:48:40.293Z,48.86
2023-04-01T12:51:28.141Z,46.27
2023-04-01T12:54:13.228Z,47.60
2023-04-01T12:56:40.084Z,46.45
2023-04-01T12:59:31.991Z,46.95
2023-04-01T13:02:29.719Z,46.67
2023-04-01T13:05:23.180Z,45.91
2023-04-01T13:08:03.574Z,46.85
2023-04-01T13:10:33.771Z,44.99
2023-04-01T13:13:41.101Z,46.16
2023-04-01T13:16:23.233Z,46.26
2023-04-01T13:19:14.626Z,42.59
2023-04-01T13:22:09.092Z,42.54
2023-04-01T13:24:42.596Z,43.68
2023-04-01T13:27:47.363Z,43.73
2023-04-01T13:30:46.275Z,44.81
2023-04-01T13:33:39.688Z,47.29
2023-04-01T13:36:19.527Z,48.55
2023-04-01T13:38:56.641Z,49.61
2023-04-01T13:41:39.472Z,51.13
2023-04-01T13:44:24.357Z,50.76
2023-04-01T13:47:09.399Z,52.74
2023-04-01T13:50:11.421Z,51.12
2023-04-01T13:52:47.272Z,51.26
2023-04-01T13:55:33.127Z,51.51
2023-04-01T13:58:15.294Z,48.83
2023-04-01T14:01:06.894Z,48.37
2023-04-01T14:04:06.128Z,47.87
2023-04-01T14:06:50.697Z,46.78
2023-04-01T14:09:53.062Z,46.96
2023-04-01T14:12:30.148Z,49.21
2023-04-01T14:15:24.838Z,51.44
2023-04-01T14:17:54.641Z,55.83
2023-04-01T14:20:24.537Z,55.80
2023-04-01T14:23:16.398Z,55.15
2023-04-01T14:25:43.325Z,54.25
2023-04-01T14:28:16.247Z,50.31
2023-04-01T14:31:01.783Z,49.15
2023-04-01T14:33:48.318Z,45.58
2023-04-01T14:36:43.181Z,43.53
2023-04-01T14:39:31.550Z,41.70
2023-04-01T14:42:22.408Z,39.81
2023-04-01T14:44:56.707Z,40.56
2023-04-01T14:48:01.913Z,40.67
2023-04-01T14:50:41.424Z,39.98
2023-04-01T14:53:08.395Z,40.68
2023-04-01T14:55:44.504Z,38.98
2023-04-01T14:58:15.741Z,38.29
2023-04-01T15:00:53.577Z,38.78
2023-04-01T15:03:28.320Z,38.18
2023-04-01T15:06:13.454Z,37.05
2023-04-01T15:08:59.132Z,36.23
2023-04-01T15:11:35.009Z,36.40
2023-04-01T15:14:30.607Z,36.85
2023-04-01T15:17:08.522Z,37.54
2023-04-01T15:19:57.393Z,37.58
2023-04-01T15:22:32.085Z,36.81
2023-04-01T15:25:27.235Z,37.73
2023-04-01T15:27:57.130Z,37.80
2023-04-01T15:30:37.036Z,38.84
2023-04-01T15:33:13.225Z,39.43
2023-04-01T15:36:07.792Z,39.82
2023-04-01T15:38:39.952Z,40.77
2023-04-01T15:41:27.173Z,41.20
2023-04-01T15:43:54.135Z,41.31
2023-04-01T15:46:33.010Z,41.87
2023-04-01T15:49:32.808Z,42.34
2023-04-01T15:52:26.304Z,42.42
2023-04-01T15:55:13.559Z,43.41
2023-04-01T15:57:47.241Z,43.92
2023-04-01T16:00:58.417Z,44.46
2023-04-01T16:03:34.450Z,44.79
2023-04-01T16:06:01.382Z,45.08
2023-04-01T16:08:47.449Z,45.42
2023-04-01T16:11:53.119Z,45.45
2023-04-01T16:14:40.239Z,45.43
2023-04-01T16:17:28.719Z,45.83
2023-04-01T16:20:11.315Z,45.97
2023-04-01T16:22:51.670Z,46.71
2023-04-01T16:25:43.083Z,47.52
2023-04-01T16:28:35.601Z,47.29
2023-04-01T16:31:14.462Z,47.57
2023-04-01T16:34:09.287Z,47.81
2023-04-01T16:36:55.598Z,47.96
2023-04-01T16:39:58.440Z,48.52
2023-04-01T16:42:47.811Z,48.04
2023-04-01T16:45:30.097Z,49.52
2023-04-01T16:48:07.422Z,50.50
2023-04-01T16:51:00.676Z,51.14
2023-04-01T16:53:49.613Z,51.17
2023-04-01T16:56:31.516Z,50.36
2023-04-01T16:59:07.887Z,50.16
2023-04-01T17:01:44.769Z,50.62
2023-04-01T17:04:27.144Z,51.00
2023-04-01T17:07:03.670Z,51.90
2023-04-01T17:10:16.536Z,51.43
2023-04-01T17:13:02.143Z,52.24
2023-04-01T17:15:41.185Z,52.00
2023-04-01T17:18:26.533Z,53.82
2023-04-01T17:21:01.289Z,54.04
2023-04-01T17:23:45.105Z,53.81
2023-04-01T17:26:30.856Z,57.04
2023-04-01T17:29:16.186Z,58.21
2023-04-01T17:32:10.942Z,57.61
2023-04-01T17:35:02.428Z,57.05
2023-04-01T17:37:56.322Z,57.51
2023-04-01T17:40:30.928Z,57.11
2023-04-01T17:43:30.259Z,56.00
2023-04-01T17:46:02.410Z,67.56
2023-04-01T17:48:58.711Z,63.12
2023-04-01T17:51:57.812Z,62.51
2023-04-01T17:54:57.135Z,61.25
2023-04-01T17:57:46.054Z,68.62
2023-04-01T18:00:27.131Z,69.01
2023-04-01T18:03:31.535Z,64.32
2023-04-01T18:06:41.104Z,62.36
2023-04-01T18:09:36.954Z,66.77
2023-04-01T18:12:32.916Z,63.44
2023-04-01T18:17:45.208Z,62.93
2023-04-01T18:20:24.276Z,62.11
2023-04-01T18:23:09.817Z,61.54
2023-04-01T18:25:42.138Z,60.94
2023-04-01T18:28:39.939Z,63.62
2023-04-01T18:31:23.213Z,63.55
2023-04-01T18:33:50.662Z,61.71
2023-04-01T18:36:42.619Z,61.16
2023-04-01T18:39:17.216Z,60.00
2023-04-01T18:42:04.417Z,66.99
2023-04-01T18:44:47.163Z,68.28
2023-04-01T18:47:32.448Z,64.38
2023-04-01T18:50:21.551Z,66.43
2023-04-01T18:52:59.983Z,65.40
2023-04-01T18:55:30.029Z,64.85
2023-04-01T18:58:27.574Z,67.52
2023-04-01T19:01:40.775Z,71.04
2023-04-01T19:04:35.079Z,70.89
2023-04-01T19:07:23.502Z,69.92
2023-04-01T19:09:51.969Z,78.69
2023-04-01T19:12:35.877Z,74.64
2023-04-01T19:15:36.964Z,76.90
2023-04-01T19:18:27.500Z,71.90
2023-04-01T19:20:58.641Z,71.16
2023-04-01T19:23:44.122Z,68.96
2023-04-01T19:26:32.654Z,67.30
2023-04-01T19:29:28.685Z,67.37
2023-04-01T19:32:34.223Z,69.49
2023-04-01T19:35:18.959Z,68.51
2023-04-01T19:38:13.685Z,69.59
2023-04-01T19:41:07.912Z,70.39
2023-04-01T19:44:24.601Z,69.63
2023-04-01T19:46:56.093Z,68.50
2023-04-01T19:49:34.323Z,69.50
2023-04-01T19:52:05.084Z,68.45
2023-04-01T19:54:41.349Z,67.77
2023-04-01T19:57:18.283Z,69.50
2023-04-01T20:00:05.213Z,70.01
2023-04-01T20:02:38.210Z,67.18
2023-04-01T20:05:27.085Z,67.43
2023-04-01T20:08:01.396Z,67.67
2023-04-01T20:10:43.906Z,67.76
2023-04-01T20:13:23.023Z,68.11
2023-04-01T20:16:02.852Z,70.97
2023-04-01T20:18:39.719Z,71.47
2023-04-01T20:21:26.196Z,69.30
2023-04-01T20:24:03.563Z,68.84
2023-04-01T20:26:35.575Z,69.81
2023-04-01T20:29:20.330Z,69.76
2023-04-01T20:32:14.790Z,75.87
2023-04-01T20:35:13.852Z,72.52
2023-04-01T20:37:58.335Z,70.92
2023-04-01T20:40:32.992Z,71.63
2023-04-01T20:43:14.811Z,72.68
2023-04-01T20:45:47.796Z,75.86
2023-04-01T20:48:28.499Z,73.35
2023-04-01T20:51:00.729Z,73.23
2023-04-01T20:53:38.477Z,74.62
2023-04-01T20:56:17.623Z,75.23
2023-04-01T20:59:02.836Z,74.46
2023-04-01T21:01:48.388Z,79.46
2023-04-01T21:04:34.207Z,78.70
2023-04-01T21:07:38.766Z,78.65
2023-04-01T21:10:20.032Z,77.05
2023-04-01T21:12:56.809Z,77.82
2023-04-01T21:16:01.645Z,79.31
2023-04-01T21:18:46.768Z,78.36
2023-04-01T21:22:01.416Z,78.38
2023-04-01T21:24:50.042Z,77.42
2023-04-01T21:27:25.934Z,80.15
2023-04-01T21:30:11.200Z,78.90
2023-04-01T21:32:37.990Z,76.94
2023-04-01T21:35:31.554Z,76.94
2023-04-01T21:38:15.339Z,77.09
2023-04-01T21:41:00.414Z,77.60
2023-04-01T21:43:58.327Z,77.68
2023-04-01T21:46:47.775Z,88.38
2023-04-01T21:49:25.908Z,87.49
2023-04-01T21:52:29.846Z,82.95
2023-04-01T21:55:21.341Z,82.32
2023-04-01T21:58:11.174Z,83.09
2023-04-01T22:00:59.463Z,82.28
2023-04-01T22:03:32.380Z,79.84
2023-04-01T22:06:53.507Z,83.43
2023-04-01T22:09:42.531Z,84.98
2023-04-01T22:12:33.202Z,84.50
2023-04-01T22:15:21.778Z,83.65
2023-04-01T22:18:15.168Z,86.38
2023-04-01T22:21:06.405Z,83.83
2023-04-01T22:23:46.591Z,97.05
2023-04-01T22:26:44.508Z,96.08
2023-04-01T22:29:31.126Z,98.61
2023-04-01T22:32:20.916Z,94.21
2023-04-01T22:34:53.718Z,91.63
2023-04-01T22:37:33.361Z,90.66
2023-04-01T22:40:24.643Z,94.06
2023-04-01T22:43:02.643Z,88.28
2023-04-01T22:45:51.036Z,88.37
2023-04-01T22:48:39.643Z,87.96
2023-04-01T22:51:19.199Z,85.78
2023-04-01T22:54:07.836Z,88.51
2023-04-01T22:56:41.573Z,88.58
2023-04-01T22:59:37.790Z,89.24
2023-04-01T23:02:26.944Z,85.88
2023-04-01T23:04:59.355Z,91.67
2023-04-01T23:07:47.723Z,90.13
2023-04-01T23:10:45.853Z,87.33
2023-04-01T23:13:22.201Z,88.46
2023-04-01T23:15:49.405Z,89.64
2023-04-01T23:18:37.483Z,88.75
2023-04-01T23:21:17.623Z,96.66
2023-04-01T23:23:51.412Z,92.92
2023-04-01T23:26:34.184Z,96.50
2023-04-01T23:29:01.710Z,98.78
2023-04-01T23:31:30.244Z,95.52
2023-04-01T23:34:07.016Z,95.36
2023-04-01T23:36:40.566Z,94.79
2023-04-01T23:39:25.217Z,95.43
2023-04-01T23:41:56.215Z,92.64
2023-04-01T23:44:26.850Z,91.09
2023-04-01T23:46:55.575Z,88.94
2023-04-01T23:49:26.805Z,88.10
2023-04-01T23:51:58.204Z,89.08
2023-04-01T23:55:16.487Z,88.28
2023-04-01T23:57:43.480Z,90.91
